Adolph, Minnesota
Current Conditions -  °F | °C
As of 12:55 AM on Sunday 26 Oct 2014 (Local Time) from KDLH Reporting Station
Clear Clear  
Wind Chill: 33°   Ceiling: Unl
Heat Index: 39°   Visibility: 10mi
Dew Point: 25°   Wind: 8mph
Humidity: 57%   Direction: 290°WNW
Pressure: 29.97"   Gusts: NA
Location:  46.78°N, 92.28°W
Report Text: KDLH 260555Z 29007KT 10SM CLR 04/M04 A2997 RMK AO2 SLP159 T00391039 10106 20033 401500033 51001
Loading
Personal Weather Stations






























Interactive Weather Map
Tropical Storm Tracking
New forecast layout! Learn more

10-Day Weather Forecast

Advertisements
Track Severe Weather on mobile